sensor_id;sensor_type;location;lat;lon;timestamp;pressure;altitude;pressure_sealevel;temperature;humidity
26087;BME280;13851;43.434;28.338;2023-04-03T00:00:30;98771.03;;;10.46;100.00
26087;BME280;13851;43.434;28.338;2023-04-03T00:02:56;99111.81;;;12.46;100.00
26087;BME280;13851;43.434;28.338;2023-04-03T00:05:22;99039.59;;;11.86;100.00
26087;BME280;13851;43.434;28.338;2023-04-03T00:07:47;98723.88;;;9.76;100.00
26087;BME280;13851;43.434;28.338;2023-04-03T00:10:15;99053.91;;;11.68;100.00
26087;BME280;13851;43.434;28.338;2023-04-03T00:12:40;99121.13;;;12.19;100.00
26087;BME280;13851;43.434;28.338;2023-04-03T00:15:06;99102.72;;;11.86;100.00
26087;BME280;13851;43.434;28.338;2023-04-03T00:17:32;98894.78;;;10.89;100.00
26087;BME280;13851;43.434;28.338;2023-04-03T00:19:58;98843.50;;;10.63;100.00
26087;BME280;13851;43.434;28.338;2023-04-03T00:22:23;98890.13;;;10.76;100.00
26087;BME280;13851;43.434;28.338;2023-04-03T00:24:49;99119.00;;;12.41;100.00
26087;BME280;13851;43.434;28.338;2023-04-03T00:27:14;99135.28;;;12.42;100.00
26087;BME280;13851;43.434;28.338;2023-04-03T00:29:41;99071.28;;;12.22;100.00
26087;BME280;13851;43.434;28.338;2023-04-03T00:32:06;99163.19;;;12.39;100.00
26087;BME280;13851;43.434;28.338;2023-04-03T00:34:32;98779.97;;;10.13;100.00
26087;BME280;13851;43.434;28.338;2023-04-03T00:36:57;99079.72;;;12.07;100.00
26087;BME280;13851;43.434;28.338;2023-04-03T00:39:23;99072.53;;;12.06;100.00
26087;BME280;13851;43.434;28.338;2023-04-03T00:41:48;99084.78;;;12.17;100.00
26087;BME280;13851;43.434;28.338;2023-04-03T00:47:05;99112.25;;;12.30;100.00
26087;BME280;13851;43.434;28.338;2023-04-03T00:49:32;99055.22;;;12.12;100.00
26087;BME280;13851;43.434;28.338;2023-04-03T00:51:58;98700.38;;;9.95;100.00
26087;BME280;13851;43.434;28.338;2023-04-03T00:54:25;99131.25;;;12.38;100.00
26087;BME280;13851;43.434;28.338;2023-04-03T00:56:51;99098.28;;;12.52;100.00
26087;BME280;13851;43.434;28.338;2023-04-03T00:59:21;98762.19;;;10.57;100.00
26087;BME280;13851;43.434;28.338;2023-04-03T01:01:52;99050.81;;;11.98;100.00
26087;BME280;13851;43.434;28.338;2023-04-03T01:04:37;99125.75;;;12.52;100.00
26087;BME280;13851;43.434;28.338;2023-04-03T01:09:34;98736.69;;;10.36;100.00
26087;BME280;13851;43.434;28.338;2023-04-03T01:12:20;99105.47;;;12.66;100.00
26087;BME280;13851;43.434;28.338;2023-04-03T01:14:50;99107.16;;;12.60;100.00
26087;BME280;13851;43.434;28.338;2023-04-03T01:17:29;99107.59;;;12.51;100.00
26087;BME280;13851;43.434;28.338;2023-04-03T01:25:13;98912.75;;;11.31;100.00
26087;BME280;13851;43.434;28.338;2023-04-03T01:27:39;99046.56;;;12.02;100.00
26087;BME280;13851;43.434;28.338;2023-04-03T01:30:06;99135.25;;;12.22;100.00
26087;BME280;13851;43.434;28.338;2023-04-03T01:32:32;98958.53;;;11.37;100.00
26087;BME280;13851;43.434;28.338;2023-04-03T01:34:57;99084.38;;;12.13;100.00
26087;BME280;13851;43.434;28.338;2023-04-03T01:37:23;99079.94;;;12.06;100.00
26087;BME280;13851;43.434;28.338;2023-04-03T01:39:48;98636.47;;;9.34;100.00
26087;BME280;13851;43.434;28.338;2023-04-03T01:42:14;98679.66;;;9.59;100.00
26087;BME280;13851;43.434;28.338;2023-04-03T01:44:41;98994.78;;;11.39;100.00
26087;BME280;13851;43.434;28.338;2023-04-03T01:47:07;99094.22;;;11.81;100.00
26087;BME280;13851;43.434;28.338;2023-04-03T01:49:32;99084.97;;;11.82;100.00
26087;BME280;13851;43.434;28.338;2023-04-03T01:51:58;99068.44;;;11.56;100.00
26087;BME280;13851;43.434;28.338;2023-04-03T01:54:24;99044.63;;;11.76;100.00
26087;BME280;13851;43.434;28.338;2023-04-03T01:56:49;99029.44;;;11.67;100.00
26087;BME280;13851;43.434;28.338;2023-04-03T01:59:15;98713.75;;;9.70;100.00
26087;BME280;13851;43.434;28.338;2023-04-03T02:01:43;99025.00;;;11.66;100.00
26087;BME280;13851;43.434;28.338;2023-04-03T02:04:11;99089.88;;;11.93;100.00
26087;BME280;13851;43.434;28.338;2023-04-03T02:06:37;99088.81;;;11.94;100.00
26087;BME280;13851;43.434;28.338;2023-04-03T02:09:03;99113.09;;;12.04;100.00
26087;BME280;13851;43.434;28.338;2023-04-03T02:11:28;98822.16;;;10.32;100.00
26087;BME280;13851;43.434;28.338;2023-04-03T02:13:54;99087.31;;;11.85;100.00
26087;BME280;13851;43.434;28.338;2023-04-03T02:16:19;99095.53;;;11.85;100.00
26087;BME280;13851;43.434;28.338;2023-04-03T02:18:45;98751.66;;;9.79;100.00
26087;BME280;13851;43.434;28.338;2023-04-03T02:21:10;99119.22;;;11.93;100.00
26087;BME280;13851;43.434;28.338;2023-04-03T02:23:36;99118.78;;;12.03;100.00
26087;BME280;13851;43.434;28.338;2023-04-03T02:26:13;99125.34;;;12.08;100.00
26087;BME280;13851;43.434;28.338;2023-04-03T02:28:39;99092.56;;;11.80;100.00
26087;BME280;13851;43.434;28.338;2023-04-03T02:31:06;99068.25;;;11.64;100.00
26087;BME280;13851;43.434;28.338;2023-04-03T02:33:33;99050.31;;;11.61;100.00
26087;BME280;13851;43.434;28.338;2023-04-03T02:35:58;99123.84;;;12.06;100.00
26087;BME280;13851;43.434;28.338;2023-04-03T02:38:24;99134.00;;;12.12;100.00
26087;BME280;13851;43.434;28.338;2023-04-03T02:40:50;99124.63;;;11.73;100.00
26087;BME280;13851;43.434;28.338;2023-04-03T02:43:16;99196.72;;;12.08;100.00
26087;BME280;13851;43.434;28.338;2023-04-03T02:45:42;99097.16;;;11.66;100.00
26087;BME280;13851;43.434;28.338;2023-04-03T02:48:08;99182.75;;;11.90;100.00
26087;BME280;13851;43.434;28.338;2023-04-03T02:50:33;99112.56;;;11.61;100.00
26087;BME280;13851;43.434;28.338;2023-04-03T02:52:59;99122.28;;;11.57;100.00
26087;BME280;13851;43.434;28.338;2023-04-03T02:55:24;98993.88;;;10.23;100.00
26087;BME280;13851;43.434;28.338;2023-04-03T02:57:50;99119.16;;;10.77;100.00
26087;BME280;13851;43.434;28.338;2023-04-03T03:00:16;99106.31;;;10.78;100.00
26087;BME280;13851;43.434;28.338;2023-04-03T03:02:42;99092.00;;;10.82;100.00
26087;BME280;13851;43.434;28.338;2023-04-03T03:05:08;99076.25;;;10.91;100.00
26087;BME280;13851;43.434;28.338;2023-04-03T03:07:33;99134.59;;;11.26;100.00
26087;BME280;13851;43.434;28.338;2023-04-03T03:09:59;99097.31;;;11.32;100.00
26087;BME280;13851;43.434;28.338;2023-04-03T03:12:25;98764.16;;;9.54;100.00
26087;BME280;13851;43.434;28.338;2023-04-03T03:14:50;99088.47;;;11.50;100.00
26087;BME280;13851;43.434;28.338;2023-04-03T03:17:16;99095.69;;;11.64;100.00
26087;BME280;13851;43.434;28.338;2023-04-03T03:19:42;98801.75;;;9.86;100.00
26087;BME280;13851;43.434;28.338;2023-04-03T03:22:08;99162.59;;;11.63;100.00
26087;BME280;13851;43.434;28.338;2023-04-03T03:24:34;98695.34;;;9.02;100.00
26087;BME280;13851;43.434;28.338;2023-04-03T03:26:59;98779.00;;;9.38;100.00
26087;BME280;13851;43.434;28.338;2023-04-03T03:29:25;99090.44;;;11.08;100.00
26087;BME280;13851;43.434;28.338;2023-04-03T03:31:50;99004.38;;;10.48;100.00
26087;BME280;13851;43.434;28.338;2023-04-03T03:34:16;99074.94;;;10.80;100.00
26087;BME280;13851;43.434;28.338;2023-04-03T03:36:41;98898.72;;;9.49;100.00
26087;BME280;13851;43.434;28.338;2023-04-03T03:39:07;99046.66;;;10.38;100.00
26087;BME280;13851;43.434;28.338;2023-04-03T03:41:32;98725.44;;;8.31;100.00
26087;BME280;13851;43.434;28.338;2023-04-03T03:43:58;99105.31;;;10.51;100.00
26087;BME280;13851;43.434;28.338;2023-04-03T03:46:23;99088.16;;;10.35;100.00
26087;BME280;13851;43.434;28.338;2023-04-03T03:48:49;99149.31;;;10.77;100.00
26087;BME280;13851;43.434;28.338;2023-04-03T03:51:15;99136.84;;;10.75;100.00
26087;BME280;13851;43.434;28.338;2023-04-03T03:53:40;99149.50;;;10.76;100.00
26087;BME280;13851;43.434;28.338;2023-04-03T03:56:06;99176.50;;;10.79;100.00
26087;BME280;13851;43.434;28.338;2023-04-03T03:58:32;99094.59;;;10.56;100.00
26087;BME280;13851;43.434;28.338;2023-04-03T04:01:05;99069.44;;;10.39;100.00
26087;BME280;13851;43.434;28.338;2023-04-03T04:03:32;99155.72;;;10.91;100.00
26087;BME280;13851;43.434;28.338;2023-04-03T04:05:57;99214.19;;;11.05;100.00
26087;BME280;13851;43.434;28.338;2023-04-03T04:08:23;99140.69;;;10.80;100.00
26087;BME280;13851;43.434;28.338;2023-04-03T04:10:49;99128.53;;;10.55;100.00
26087;BME280;13851;43.434;28.338;2023-04-03T04:13:15;99095.34;;;10.43;100.00
26087;BME280;13851;43.434;28.338;2023-04-03T04:15:40;99136.41;;;10.71;100.00
26087;BME280;13851;43.434;28.338;2023-04-03T04:18:06;98990.91;;;9.83;100.00
26087;BME280;13851;43.434;28.338;2023-04-03T04:20:31;99121.78;;;10.29;100.00
26087;BME280;13851;43.434;28.338;2023-04-03T04:22:57;99177.44;;;10.92;100.00
26087;BME280;13851;43.434;28.338;2023-04-03T04:25:22;99166.31;;;11.01;100.00
26087;BME280;13851;43.434;28.338;2023-04-03T04:27:48;99186.75;;;11.39;100.00
26087;BME280;13851;43.434;28.338;2023-04-03T04:30:14;98760.81;;;9.17;100.00
26087;BME280;13851;43.434;28.338;2023-04-03T04:32:39;98762.50;;;9.53;100.00
26087;BME280;13851;43.434;28.338;2023-04-03T04:35:05;99163.25;;;11.78;100.00
26087;BME280;13851;43.434;28.338;2023-04-03T04:37:31;99151.94;;;11.94;100.00
26087;BME280;13851;43.434;28.338;2023-04-03T04:39:57;99166.09;;;12.18;100.00
26087;BME280;13851;43.434;28.338;2023-04-03T04:42:22;99188.72;;;12.33;100.00
26087;BME280;13851;43.434;28.338;2023-04-03T04:44:48;99174.34;;;12.71;100.00
26087;BME280;13851;43.434;28.338;2023-04-03T04:47:14;99132.06;;;12.59;100.00
26087;BME280;13851;43.434;28.338;2023-04-03T04:49:39;99220.38;;;13.29;100.00
26087;BME280;13851;43.434;28.338;2023-04-03T04:52:05;99222.84;;;13.50;100.00
26087;BME280;13851;43.434;28.338;2023-04-03T04:54:31;99218.19;;;13.50;100.00
26087;BME280;13851;43.434;28.338;2023-04-03T04:56:57;99134.81;;;12.72;100.00
26087;BME280;13851;43.434;28.338;2023-04-03T04:59:23;98886.81;;;11.27;100.00
26087;BME280;13851;43.434;28.338;2023-04-03T05:01:48;99221.22;;;13.29;100.00
26087;BME280;13851;43.434;28.338;2023-04-03T05:04:15;99223.78;;;13.24;100.00
26087;BME280;13851;43.434;28.338;2023-04-03T05:06:40;99266.94;;;13.37;100.00
26087;BME280;13851;43.434;28.338;2023-04-03T05:09:06;99279.63;;;13.38;100.00
26087;BME280;13851;43.434;28.338;2023-04-03T05:11:32;99234.75;;;13.37;100.00
26087;BME280;13851;43.434;28.338;2023-04-03T05:13:59;99187.19;;;13.17;100.00
26087;BME280;13851;43.434;28.338;2023-04-03T05:16:25;99201.78;;;13.17;100.00
26087;BME280;13851;43.434;28.338;2023-04-03T05:18:51;99213.81;;;13.36;100.00
26087;BME280;13851;43.434;28.338;2023-04-03T05:21:16;99229.00;;;13.45;100.00
26087;BME280;13851;43.434;28.338;2023-04-03T05:23:43;99209.75;;;13.52;100.00
26087;BME280;13851;43.434;28.338;2023-04-03T05:26:09;99230.31;;;13.43;100.00
26087;BME280;13851;43.434;28.338;2023-04-03T05:28:34;99239.38;;;13.50;100.00
26087;BME280;13851;43.434;28.338;2023-04-03T05:31:00;99170.53;;;12.92;100.00
26087;BME280;13851;43.434;28.338;2023-04-03T05:33:26;99168.00;;;12.77;100.00
26087;BME280;13851;43.434;28.338;2023-04-03T05:35:53;99249.50;;;13.63;100.00
26087;BME280;13851;43.434;28.338;2023-04-03T05:38:19;99229.78;;;13.66;100.00
26087;BME280;13851;43.434;28.338;2023-04-03T05:40:45;98853.47;;;11.57;100.00
26087;BME280;13851;43.434;28.338;2023-04-03T05:43:11;99195.22;;;13.76;100.00
26087;BME280;13851;43.434;28.338;2023-04-03T05:45:36;99269.41;;;14.10;100.00
26087;BME280;13851;43.434;28.338;2023-04-03T05:48:02;99190.72;;;13.89;100.00
26087;BME280;13851;43.434;28.338;2023-04-03T05:50:27;99254.03;;;14.34;100.00
26087;BME280;13851;43.434;28.338;2023-04-03T05:52:57;99240.59;;;14.50;100.00
26087;BME280;13851;43.434;28.338;2023-04-03T05:55:24;99235.44;;;14.61;100.00
26087;BME280;13851;43.434;28.338;2023-04-03T05:57:49;99244.47;;;14.74;100.00
26087;BME280;13851;43.434;28.338;2023-04-03T06:00:16;99254.13;;;14.83;100.00
26087;BME280;13851;43.434;28.338;2023-04-03T06:02:41;99269.31;;;14.93;100.00
26087;BME280;13851;43.434;28.338;2023-04-03T06:05:11;98968.03;;;13.17;100.00
26087;BME280;13851;43.434;28.338;2023-04-03T06:07:38;99202.47;;;14.72;100.00
26087;BME280;13851;43.434;28.338;2023-04-03T06:10:04;99265.09;;;15.15;100.00
26087;BME280;13851;43.434;28.338;2023-04-03T06:12:30;99292.97;;;15.32;100.00
26087;BME280;13851;43.434;28.338;2023-04-03T06:14:56;99297.56;;;15.38;100.00
26087;BME280;13851;43.434;28.338;2023-04-03T06:17:21;99296.59;;;15.51;100.00
26087;BME280;13851;43.434;28.338;2023-04-03T06:19:47;98886.00;;;13.08;100.00
26087;BME280;13851;43.434;28.338;2023-04-03T06:22:13;98916.38;;;13.26;100.00
26087;BME280;13851;43.434;28.338;2023-04-03T06:24:39;99301.47;;;15.92;100.00
26087;BME280;13851;43.434;28.338;2023-04-03T06:27:04;99293.41;;;16.09;100.00
26087;BME280;13851;43.434;28.338;2023-04-03T06:29:30;99292.75;;;16.25;100.00
26087;BME280;13851;43.434;28.338;2023-04-03T06:31:56;99192.25;;;15.78;100.00
26087;BME280;13851;43.434;28.338;2023-04-03T06:34:22;99247.88;;;16.11;100.00
26087;BME280;13851;43.434;28.338;2023-04-03T06:36:47;99280.03;;;16.54;100.00
26087;BME280;13851;43.434;28.338;2023-04-03T06:39:19;99296.13;;;16.57;100.00
26087;BME280;13851;43.434;28.338;2023-04-03T06:41:49;99291.47;;;16.28;100.00
26087;BME280;13851;43.434;28.338;2023-04-03T06:44:15;99017.38;;;14.87;100.00
26087;BME280;13851;43.434;28.338;2023-04-03T06:46:42;99246.44;;;16.39;100.00
26087;BME280;13851;43.434;28.338;2023-04-03T06:49:08;99140.84;;;15.77;100.00
26087;BME280;13851;43.434;28.338;2023-04-03T06:51:35;99329.97;;;17.01;100.00
26087;BME280;13851;43.434;28.338;2023-04-03T06:54:01;99242.88;;;16.62;100.00
26087;BME280;13851;43.434;28.338;2023-04-03T06:56:27;99333.78;;;17.30;100.00
26087;BME280;13851;43.434;28.338;2023-04-03T06:58:54;99165.19;;;16.40;100.00
26087;BME280;13851;43.434;28.338;2023-04-03T07:01:22;99321.22;;;17.28;100.00
26087;BME280;13851;43.434;28.338;2023-04-03T07:03:49;99341.09;;;17.60;100.00
26087;BME280;13851;43.434;28.338;2023-04-03T07:06:16;99345.72;;;17.78;100.00
26087;BME280;13851;43.434;28.338;2023-04-03T07:08:43;99355.94;;;18.01;100.00
26087;BME280;13851;43.434;28.338;2023-04-03T07:11:10;99379.44;;;17.98;100.00
26087;BME280;13851;43.434;28.338;2023-04-03T07:13:35;99350.94;;;18.26;100.00
26087;BME280;13851;43.434;28.338;2023-04-03T07:16:02;99368.41;;;18.38;100.00
26087;BME280;13851;43.434;28.338;2023-04-03T07:18:30;99366.09;;;18.47;100.00
26087;BME280;13851;43.434;28.338;2023-04-03T07:20:55;99377.38;;;18.57;100.00
26087;BME280;13851;43.434;28.338;2023-04-03T07:23:21;99330.91;;;18.36;100.00
26087;BME280;13851;43.434;28.338;2023-04-03T07:25:49;99378.69;;;18.66;100.00
26087;BME280;13851;43.434;28.338;2023-04-03T07:28:16;99373.88;;;18.74;100.00
26087;BME280;13851;43.434;28.338;2023-04-03T07:30:48;99349.91;;;18.56;100.00
26087;BME280;13851;43.434;28.338;2023-04-03T07:33:16;99410.38;;;18.94;100.00
26087;BME280;13851;43.434;28.338;2023-04-03T07:35:42;99400.63;;;18.80;100.00
26087;BME280;13851;43.434;28.338;2023-04-03T07:38:08;99101.47;;;17.29;100.00
26087;BME280;13851;43.434;28.338;2023-04-03T07:40:34;99408.19;;;19.13;100.00
26087;BME280;13851;43.434;28.338;2023-04-03T07:43:00;99409.66;;;19.15;100.00
26087;BME280;13851;43.434;28.338;2023-04-03T07:45:26;99415.00;;;18.77;100.00
26087;BME280;13851;43.434;28.338;2023-04-03T07:47:52;99341.28;;;18.40;100.00
26087;BME280;13851;43.434;28.338;2023-04-03T07:50:18;99183.16;;;17.43;100.00
26087;BME280;13851;43.434;28.338;2023-04-03T07:52:44;99107.91;;;16.94;100.00
26087;BME280;13851;43.434;28.338;2023-04-03T07:55:11;99408.13;;;18.79;100.00
26087;BME280;13851;43.434;28.338;2023-04-03T07:57:36;99412.03;;;18.95;100.00
26087;BME280;13851;43.434;28.338;2023-04-03T08:00:06;99440.88;;;19.22;100.00
26087;BME280;13851;43.434;28.338;2023-04-03T08:02:31;99463.38;;;19.38;100.00
26087;BME280;13851;43.434;28.338;2023-04-03T08:05:00;99409.59;;;19.27;100.00
26087;BME280;13851;43.434;28.338;2023-04-03T08:07:26;99153.81;;;17.71;100.00
26087;BME280;13851;43.434;28.338;2023-04-03T08:09:51;99185.72;;;17.85;100.00
26087;BME280;13851;43.434;28.338;2023-04-03T08:12:17;99453.19;;;19.27;100.00
26087;BME280;13851;43.434;28.338;2023-04-03T08:14:43;99459.53;;;19.10;100.00
26087;BME280;13851;43.434;28.338;2023-04-03T08:17:09;99372.56;;;18.64;100.00
26087;BME280;13851;43.434;28.338;2023-04-03T08:19:40;99467.25;;;19.08;100.00
26087;BME280;13851;43.434;28.338;2023-04-03T08:22:07;99177.75;;;17.25;100.00
26087;BME280;13851;43.434;28.338;2023-04-03T08:24:33;99463.94;;;18.94;100.00
26087;BME280;13851;43.434;28.338;2023-04-03T08:26:59;99469.50;;;18.83;100.00
26087;BME280;13851;43.434;28.338;2023-04-03T08:29:25;99196.19;;;17.07;100.00
26087;BME280;13851;43.434;28.338;2023-04-03T08:31:51;99377.16;;;17.95;100.00
26087;BME280;13851;43.434;28.338;2023-04-03T08:34:17;99464.84;;;18.72;100.00
26087;BME280;13851;43.434;28.338;2023-04-03T08:36:43;99434.13;;;18.38;100.00
26087;BME280;13851;43.434;28.338;2023-04-03T08:39:09;99461.81;;;18.61;100.00
26087;BME280;13851;43.434;28.338;2023-04-03T08:41:42;99469.03;;;18.62;100.00
26087;BME280;13851;43.434;28.338;2023-04-03T08:44:25;99473.44;;;18.35;100.00
26087;BME280;13851;43.434;28.338;2023-04-03T08:47:26;99461.63;;;18.04;100.00
26087;BME280;13851;43.434;28.338;2023-04-03T08:50:19;99453.25;;;17.69;100.00
26087;BME280;13851;43.434;28.338;2023-04-03T08:52:58;99471.25;;;17.90;100.00
26087;BME280;13851;43.434;28.338;2023-04-03T08:55:28;99157.31;;;16.14;100.00
26087;BME280;13851;43.434;28.338;2023-04-03T08:58:06;99474.88;;;18.14;100.00
26087;BME280;13851;43.434;28.338;2023-04-03T09:03:12;99471.53;;;18.12;100.00
26087;BME280;13851;43.434;28.338;2023-04-03T09:05:57;99473.09;;;18.19;100.00
26087;BME280;13851;43.434;28.338;2023-04-03T09:08:31;99231.66;;;16.75;100.00
26087;BME280;13851;43.434;28.338;2023-04-03T09:11:09;99454.50;;;18.32;100.00
26087;BME280;13851;43.434;28.338;2023-04-03T09:16:49;99479.81;;;18.59;100.00
26087;BME280;13851;43.434;28.338;2023-04-03T09:19:40;99487.50;;;18.57;100.00
26087;BME280;13851;43.434;28.338;2023-04-03T09:22:27;99425.25;;;18.12;100.00
26087;BME280;13851;43.434;28.338;2023-04-03T09:25:17;99481.25;;;18.50;100.00
26087;BME280;13851;43.434;28.338;2023-04-03T09:27:44;99508.88;;;18.44;100.00
26087;BME280;13851;43.434;28.338;2023-04-03T09:30:22;99473.53;;;18.63;100.00
26087;BME280;13851;43.434;28.338;2023-04-03T09:32:54;99483.78;;;18.75;100.00
26087;BME280;13851;43.434;28.338;2023-04-03T09:35:26;99419.28;;;18.44;100.00
26087;BME280;13851;43.434;28.338;2023-04-03T09:37:58;99172.13;;;16.96;100.00
26087;BME280;13851;43.434;28.338;2023-04-03T09:42:51;99440.47;;;18.74;100.00
26087;BME280;13851;43.434;28.338;2023-04-03T09:45:34;99479.06;;;19.15;100.00
26087;BME280;13851;43.434;28.338;2023-04-03T09:51:00;99472.81;;;19.08;100.00
26087;BME280;13851;43.434;28.338;2023-04-03T09:53:37;99469.25;;;18.96;100.00
26087;BME280;13851;43.434;28.338;2023-04-03T09:58:43;99449.72;;;18.91;100.00
26087;BME280;13851;43.434;28.338;2023-04-03T10:01:28;99461.41;;;19.21;100.00
26087;BME280;13851;43.434;28.338;2023-04-03T10:04:14;99512.69;;;19.31;100.00
26087;BME280;13851;43.434;28.338;2023-04-03T10:09:26;99465.91;;;19.39;100.00
26087;BME280;13851;43.434;28.338;2023-04-03T10:15:18;99462.56;;;18.68;100.00
26087;BME280;13851;43.434;28.338;2023-04-03T10:22:46;99487.78;;;18.43;100.00
26087;BME280;13851;43.434;28.338;2023-04-03T10:25:39;99428.13;;;18.17;100.00
26087;BME280;13851;43.434;28.338;2023-04-03T10:33:46;99511.06;;;18.07;100.00
26087;BME280;13851;43.434;28.338;2023-04-03T10:36:42;99472.13;;;18.02;100.00
26087;BME280;13851;43.434;28.338;2023-04-03T10:46:47;99456.69;;;18.30;100.00
26087;BME280;13851;43.434;28.338;2023-04-03T10:49:44;99462.34;;;18.11;100.00
26087;BME280;13851;43.434;28.338;2023-04-03T10:52:22;99452.69;;;17.79;100.00
26087;BME280;13851;43.434;28.338;2023-04-03T10:57:22;99446.56;;;17.77;100.00
26087;BME280;13851;43.434;28.338;2023-04-03T11:00:03;99462.84;;;18.08;100.00
26087;BME280;13851;43.434;28.338;2023-04-03T11:02:57;99458.97;;;18.09;100.00
26087;BME280;13851;43.434;28.338;2023-04-03T11:08:02;99454.88;;;18.24;100.00
26087;BME280;13851;43.434;28.338;2023-04-03T11:10:49;99487.66;;;18.27;100.00
26087;BME280;13851;43.434;28.338;2023-04-03T11:13:31;99413.53;;;18.10;100.00
26087;BME280;13851;43.434;28.338;2023-04-03T11:15:58;99455.19;;;18.51;100.00
26087;BME280;13851;43.434;28.338;2023-04-03T11:18:31;99468.34;;;18.79;100.00
26087;BME280;13851;43.434;28.338;2023-04-03T11:21:07;99497.22;;;19.06;100.00
26087;BME280;13851;43.434;28.338;2023-04-03T11:23:36;99456.88;;;19.32;100.00
26087;BME280;13851;43.434;28.338;2023-04-03T11:26:15;99454.97;;;19.61;100.00
26087;BME280;13851;43.434;28.338;2023-04-03T11:28:41;99447.94;;;19.76;100.00
26087;BME280;13851;43.434;28.338;2023-04-03T11:33:55;99448.22;;;20.08;100.00
26087;BME280;13851;43.434;28.338;2023-04-03T11:39:23;99455.13;;;20.44;100.00
26087;BME280;13851;43.434;28.338;2023-04-03T11:41:51;99427.25;;;20.39;100.00
26087;BME280;13851;43.434;28.338;2023-04-03T11:44:37;99454.91;;;20.67;100.00
26087;BME280;13851;43.434;28.338;2023-04-03T11:47:08;99507.81;;;20.67;100.00
26087;BME280;13851;43.434;28.338;2023-04-03T12:08:30;99472.25;;;21.18;100.00
26087;BME280;13851;43.434;28.338;2023-04-03T12:13:37;99430.91;;;20.06;100.00
26087;BME280;13851;43.434;28.338;2023-04-03T12:16:05;99460.59;;;20.17;100.00
26087;BME280;13851;43.434;28.338;2023-04-03T12:18:44;99448.19;;;19.91;100.00
26087;BME280;13851;43.434;28.338;2023-04-03T12:21:14;99401.31;;;19.78;100.00
26087;BME280;13851;43.434;28.338;2023-04-03T12:26:34;99423.50;;;20.11;100.00
26087;BME280;13851;43.434;28.338;2023-04-03T12:40:36;99437.84;;;19.69;100.00
26087;BME280;13851;43.434;28.338;2023-04-03T12:48:24;99373.97;;;18.67;100.00
26087;BME280;13851;43.434;28.338;2023-04-03T12:50:51;99442.59;;;18.83;100.00
26087;BME280;13851;43.434;28.338;2023-04-03T12:53:35;99131.84;;;16.77;100.00
26087;BME280;13851;43.434;28.338;2023-04-03T12:58:50;99433.66;;;18.29;100.00
26087;BME280;13851;43.434;28.338;2023-04-03T13:01:18;99347.41;;;17.79;100.00
26087;BME280;13851;43.434;28.338;2023-04-03T13:03:50;99225.94;;;16.58;100.00
26087;BME280;13851;43.434;28.338;2023-04-03T13:06:32;99413.56;;;17.87;100.00
26087;BME280;13851;43.434;28.338;2023-04-03T13:09:00;99089.47;;;15.57;100.00
26087;BME280;13851;43.434;28.338;2023-04-03T13:11:46;99400.94;;;17.49;100.00
26087;BME280;13851;43.434;28.338;2023-04-03T13:14:19;99324.75;;;16.81;100.00
26087;BME280;13851;43.434;28.338;2023-04-03T13:17:00;99341.25;;;16.88;100.00
26087;BME280;13851;43.434;28.338;2023-04-03T13:19:28;99391.41;;;17.22;100.00
26087;BME280;13851;43.434;28.338;2023-04-03T13:22:01;99396.94;;;17.22;100.00
26087;BME280;13851;43.434;28.338;2023-04-03T13:24:29;99400.28;;;17.24;100.00
26087;BME280;13851;43.434;28.338;2023-04-03T13:26:56;99350.63;;;16.87;100.00
26087;BME280;13851;43.434;28.338;2023-04-03T13:29:36;99444.78;;;16.80;100.00
26087;BME280;13851;43.434;28.338;2023-04-03T13:32:03;99273.91;;;15.85;100.00
26087;BME280;13851;43.434;28.338;2023-04-03T13:34:41;99307.69;;;15.88;100.00
26087;BME280;13851;43.434;28.338;2023-04-03T13:37:25;99387.47;;;16.32;100.00
26087;BME280;13851;43.434;28.338;2023-04-03T13:42:34;99359.63;;;15.29;100.00
26087;BME280;13851;43.434;28.338;2023-04-03T13:47:50;99383.38;;;15.30;100.00
26087;BME280;13851;43.434;28.338;2023-04-03T13:50:23;99379.66;;;15.18;100.00
26087;BME280;13851;43.434;28.338;2023-04-03T13:53:00;99418.91;;;15.20;100.00
26087;BME280;13851;43.434;28.338;2023-04-03T13:55:30;99381.81;;;15.16;100.00
26087;BME280;13851;43.434;28.338;2023-04-03T14:00:28;99397.72;;;15.20;100.00
26087;BME280;13851;43.434;28.338;2023-04-03T14:02:56;99305.13;;;14.68;100.00
26087;BME280;13851;43.434;28.338;2023-04-03T14:05:24;99319.44;;;14.83;100.00
26087;BME280;13851;43.434;28.338;2023-04-03T14:07:51;99348.28;;;14.87;100.00
26087;BME280;13851;43.434;28.338;2023-04-03T14:10:17;99376.38;;;15.02;100.00
26087;BME280;13851;43.434;28.338;2023-04-03T14:12:44;99300.38;;;14.43;100.00
26087;BME280;13851;43.434;28.338;2023-04-03T14:15:21;99403.19;;;14.95;100.00
26087;BME280;13851;43.434;28.338;2023-04-03T14:17:49;99295.09;;;14.03;100.00
26087;BME280;13851;43.434;28.338;2023-04-03T14:20:16;99395.91;;;14.63;100.00
26087;BME280;13851;43.434;28.338;2023-04-03T14:22:42;99397.69;;;14.37;100.00
26087;BME280;13851;43.434;28.338;2023-04-03T14:25:09;99402.31;;;14.56;100.00
26087;BME280;13851;43.434;28.338;2023-04-03T14:27:47;99390.69;;;14.54;100.00
26087;BME280;13851;43.434;28.338;2023-04-03T14:30:31;99432.22;;;14.60;100.00
26087;BME280;13851;43.434;28.338;2023-04-03T14:32:57;99337.00;;;14.05;100.00
26087;BME280;13851;43.434;28.338;2023-04-03T14:35:25;99402.63;;;14.22;100.00
26087;BME280;13851;43.434;28.338;2023-04-03T14:37:52;99428.47;;;14.34;100.00
26087;BME280;13851;43.434;28.338;2023-04-03T14:40:22;99396.47;;;14.33;100.00